Time;durP1;ratioP1;P1;durP2;ratioP2;P2;SDS_P1;SDS_P2;PMS_P1;PMS_P2;Temp;Humidity;BMP_temperature;BMP_pressure;BME280_temperature;BME280_humidity;BME280_pressure;Samples;Min_cycle;Max_cycle;Signal;HPM_P1;HPM_P2
2023/07/31 00:01:45;;;;;;;2.58;2.38;;;;;;;23.28;52.23;94591.09;5038964;28;20262;-77
2023/07/31 00:04:10;;;;;;;2.60;2.40;;;;;;;23.38;51.84;94583.22;5035622;28;20201;-77
2023/07/31 00:06:36;;;;;;;2.80;2.60;;;;;;;23.37;52.41;94578.13;5035280;28;20188;-77
2023/07/31 00:09:01;;;;;;;3.13;2.40;;;;;;;23.40;52.38;94588.38;5039830;28;20688;-77
2023/07/31 00:11:26;;;;;;;2.80;2.60;;;;;;;23.47;52.61;94581.78;5033153;28;20178;-77
2023/07/31 00:13:53;;;;;;;3.47;2.55;;;;;;;23.46;52.75;94595.44;5036164;28;20186;-77
2023/07/31 00:16:19;;;;;;;2.60;2.40;;;;;;;23.43;52.55;94594.06;5023412;28;20273;-77
2023/07/31 00:18:44;;;;;;;7.07;2.83;;;;;;;23.32;52.34;94595.75;5037365;28;20213;-77
2023/07/31 00:21:10;;;;;;;2.80;2.47;;;;;;;23.29;52.39;94596.22;5038382;28;20193;-76
2023/07/31 00:23:35;;;;;;;2.28;2.08;;;;;;;23.23;52.65;94591.84;5034835;28;20213;-77
2023/07/31 00:26:01;;;;;;;2.60;2.40;;;;;;;23.30;52.33;94583.63;5031153;28;20186;-77
2023/07/31 00:28:27;;;;;;;2.78;2.58;;;;;;;23.19;52.83;94582.63;5040929;28;20186;-77
2023/07/31 00:30:52;;;;;;;2.47;2.28;;;;;;;23.18;53.37;94582.88;5035824;28;20187;-77
2023/07/31 00:33:18;;;;;;;3.15;2.85;;;;;;;23.09;54.60;94575.22;5033035;28;20194;-77
2023/07/31 00:35:43;;;;;;;2.80;2.60;;;;;;;22.93;55.48;94559.06;5032225;28;20179;-77
2023/07/31 00:38:09;;;;;;;3.13;2.92;;;;;;;22.90;56.22;94554.97;5033717;28;20277;-77
2023/07/31 00:40:36;;;;;;;4.03;2.92;;;;;;;22.96;55.86;94555.88;5033246;28;20186;-77
2023/07/31 00:43:03;;;;;;;3.08;2.88;;;;;;;22.95;56.17;94546.22;5033407;28;20214;-77
2023/07/31 00:45:28;;;;;;;3.60;3.28;;;;;;;22.96;55.96;94555.88;5033136;28;20209;-78
2023/07/31 00:47:54;;;;;;;3.40;3.13;;;;;;;22.81;56.75;94557.25;5035854;28;20182;-78
2023/07/31 00:50:20;;;;;;;3.65;3.35;;;;;;;22.95;56.04;94562.31;5036501;28;20272;-80
2023/07/31 00:52:45;;;;;;;4.25;3.80;;;;;;;22.92;56.18;94568.97;5035364;28;20266;-77
2023/07/31 00:55:11;;;;;;;5.15;4.75;;;;;;;22.82;56.78;94558.84;5039906;28;20178;-77
2023/07/31 00:57:38;;;;;;;4.07;3.78;;;;;;;22.76;56.68;94564.38;5034003;28;20190;-77
2023/07/31 01:00:03;;;;;;;4.68;4.20;;;;;;;22.62;57.50;94564.66;5046191;28;20374;-78
2023/07/31 01:02:29;;;;;;;5.00;4.60;;;;;;;22.68;57.29;94557.50;5032487;28;20194;-78
2023/07/31 01:04:55;;;;;;;5.70;5.20;;;;;;;22.60;57.32;94549.84;5035902;28;20201;-78
2023/07/31 01:07:25;;;;;;;5.10;4.70;;;;;;;22.56;57.68;94554.88;5036944;28;20200;-78
2023/07/31 01:10:03;;;;;;;4.97;4.57;;;;;;;22.51;57.95;94551.25;5026608;28;20194;-78
2023/07/31 01:12:31;;;;;;;5.65;5.15;;;;;;;22.59;57.66;94550.91;5053249;28;20185;-78
2023/07/31 01:15:04;;;;;;;5.82;5.32;;;;;;;22.59;57.51;94549.03;5027250;28;20194;-78
2023/07/31 01:17:30;;;;;;;6.00;5.50;;;;;;;22.63;57.49;94550.19;5049771;28;20187;-79
2023/07/31 01:20:01;;;;;;;5.95;5.45;;;;;;;22.63;57.53;94541.34;5037187;28;20189;-78
2023/07/31 01:23:03;;;;;;;6.97;6.40;;;;;;;22.63;57.78;94544.00;5035108;28;20299;-78
2023/07/31 01:25:47;;;;;;;6.65;6.15;;;;;;;22.59;58.05;94543.69;5040732;28;20186;-78
2023/07/31 01:28:38;;;;;;;7.78;7.07;;;;;;;22.50;58.39;94545.09;5036725;28;20240;-78
2023/07/31 01:31:10;;;;;;;7.55;6.93;;;;;;;22.43;58.63;94547.94;5036619;28;20198;-78
2023/07/31 01:33:37;;;;;;;7.75;7.05;;;;;;;22.37;58.93;94540.00;5033314;28;20194;-78
2023/07/31 01:36:03;;;;;;;8.52;7.85;;;;;;;22.42;58.56;94535.56;5036929;28;20186;-78
2023/07/31 01:38:28;;;;;;;9.88;8.93;;;;;;;22.23;59.63;94537.59;5032796;28;20202;-78
2023/07/31 01:40:54;;;;;;;10.32;9.50;;;;;;;22.22;59.85;94540.50;5033510;28;20687;-78
2023/07/31 01:43:20;;;;;;;11.20;10.20;;;;;;;22.08;60.37;94537.25;5022074;28;20206;-78
2023/07/31 01:45:45;;;;;;;11.73;10.63;;;;;;;22.08;60.27;94537.25;5035135;28;20186;-79
2023/07/31 01:48:11;;;;;;;11.80;10.80;;;;;;;22.10;60.35;94534.31;5039412;28;20182;-78
2023/07/31 01:50:36;;;;;;;12.35;11.32;;;;;;;22.06;60.84;94530.50;5036722;28;20189;-79
2023/07/31 01:53:02;;;;;;;13.30;12.10;;;;;;;22.02;60.92;94528.28;5032144;28;20197;-78
2023/07/31 01:55:27;;;;;;;14.45;13.15;;;;;;;22.02;61.06;94535.50;5030660;28;20194;-77
2023/07/31 01:57:53;;;;;;;14.43;13.23;;;;;;;22.12;60.89;94540.25;5032880;28;20186;-77
2023/07/31 02:00:18;;;;;;;15.73;14.23;;;;;;;22.06;61.19;94552.72;5033621;28;20182;-77
2023/07/31 02:02:43;;;;;;;16.35;14.95;;;;;;;21.64;62.95;94535.97;5030846;28;20241;-76
2023/07/31 02:05:09;;;;;;;16.35;14.95;;;;;;;21.78;62.50;94542.72;5031873;28;20884;-76
2023/07/31 02:07:34;;;;;;;16.23;14.82;;;;;;;21.89;62.38;94543.75;5027883;28;20200;-76
2023/07/31 02:10:00;;;;;;;16.95;15.35;;;;;;;21.72;62.73;94543.66;5033133;28;20220;-77
2023/07/31 02:12:25;;;;;;;16.77;15.27;;;;;;;21.75;62.72;94552.03;5032293;28;20178;-77
2023/07/31 02:14:51;;;;;;;17.38;15.77;;;;;;;21.79;62.81;94555.88;5032113;28;20190;-77
2023/07/31 02:17:16;;;;;;;16.95;15.43;;;;;;;21.84;62.61;94557.03;5029214;28;20191;-77
2023/07/31 02:19:41;;;;;;;16.95;15.45;;;;;;;21.86;62.61;94554.94;5037062;28;20276;-76
2023/07/31 02:22:07;;;;;;;17.88;16.27;;;;;;;21.84;62.73;94549.00;5034158;28;20210;-76
2023/07/31 02:24:32;;;;;;;17.65;16.10;;;;;;;21.84;62.75;94552.50;5032282;28;20196;-76
2023/07/31 02:26:58;;;;;;;17.40;15.88;;;;;;;21.77;63.05;94557.16;5032093;28;20225;-76
2023/07/31 02:29:23;;;;;;;17.38;15.88;;;;;;;21.81;63.12;94555.63;5038354;28;20240;-76
2023/07/31 02:31:48;;;;;;;17.83;16.23;;;;;;;21.80;63.13;94551.34;5035015;28;20192;-76
2023/07/31 02:34:14;;;;;;;15.88;14.45;;;;;;;21.82;63.18;94543.91;5036517;28;20181;-76
2023/07/31 02:36:39;;;;;;;18.30;16.70;;;;;;;21.95;62.74;94557.03;5030540;28;20277;-76
2023/07/31 02:39:04;;;;;;;16.80;15.35;;;;;;;21.92;62.68;94554.84;5032934;28;20202;-76
2023/07/31 02:41:30;;;;;;;17.63;16.13;;;;;;;21.72;63.51;94554.34;5040219;28;20251;-76
2023/07/31 02:43:55;;;;;;;18.15;16.55;;;;;;;21.84;63.06;94541.81;5037342;28;20210;-78
2023/07/31 02:46:24;;;;;;;17.58;16.05;;;;;;;21.85;63.13;94543.44;5032146;28;20276;-77
2023/07/31 02:48:49;;;;;;;18.52;16.92;;;;;;;21.73;63.56;94553.31;5031691;28;20186;-77
2023/07/31 02:51:15;;;;;;;17.52;15.77;;;;;;;21.89;62.79;94560.66;5031767;28;20238;-76
2023/07/31 02:53:40;;;;;;;18.25;16.65;;;;;;;21.94;62.66;94562.63;5033338;28;20182;-76
2023/07/31 02:56:06;;;;;;;17.92;16.42;;;;;;;21.86;62.58;94561.09;5034654;28;20178;-77
2023/07/31 02:58:31;;;;;;;16.60;15.13;;;;;;;21.85;62.98;94559.47;5031771;28;20487;-77
2023/07/31 03:00:58;;;;;;;18.38;16.58;;;;;;;21.90;62.63;94561.47;5033035;28;20193;-77
2023/07/31 03:03:24;;;;;;;17.13;15.63;;;;;;;21.92;62.49;94568.22;5033664;28;20202;-77
2023/07/31 03:05:49;;;;;;;17.38;15.88;;;;;;;21.84;62.63;94565.91;5041718;28;20238;-77
2023/07/31 03:08:15;;;;;;;17.08;15.50;;;;;;;21.87;62.54;94578.00;5036828;28;20217;-76
2023/07/31 03:10:40;;;;;;;17.63;16.00;;;;;;;21.77;62.88;94576.69;5022741;28;20243;-77
2023/07/31 03:13:06;;;;;;;17.55;16.02;;;;;;;21.73;62.97;94578.22;5032083;28;20185;-77
2023/07/31 03:15:31;;;;;;;17.88;16.27;;;;;;;21.80;62.75;94580.78;5037083;28;20190;-77
2023/07/31 03:17:57;;;;;;;17.85;16.35;;;;;;;21.73;62.86;94577.38;5035317;28;20182;-77
2023/07/31 03:20:22;;;;;;;19.13;17.30;;;;;;;21.83;62.81;94582.97;5036828;28;20183;-77
2023/07/31 03:22:48;;;;;;;18.30;16.60;;;;;;;21.86;62.90;94585.19;5034980;28;20209;-77
2023/07/31 03:25:14;;;;;;;18.20;16.35;;;;;;;21.95;62.49;94583.81;5040186;28;20197;-76
2023/07/31 03:27:39;;;;;;;18.00;16.40;;;;;;;21.88;63.03;94580.44;5035090;28;20216;-76
2023/07/31 03:30:05;;;;;;;17.98;16.23;;;;;;;21.88;63.05;94584.97;5039578;28;20186;-77
2023/07/31 03:32:31;;;;;;;18.45;16.75;;;;;;;22.02;62.49;94589.88;5033625;28;20194;-77
2023/07/31 03:34:57;;;;;;;18.98;17.17;;;;;;;21.75;63.37;94586.00;5038565;28;20196;-76
2023/07/31 03:37:23;;;;;;;18.63;17.02;;;;;;;21.86;63.04;94585.19;5033620;28;20189;-76
2023/07/31 03:39:48;;;;;;;17.63;15.82;;;;;;;21.86;62.79;94587.06;5038054;28;20208;-76
2023/07/31 03:42:14;;;;;;;18.50;16.90;;;;;;;22.00;62.52;94586.59;5037183;28;20648;-76
2023/07/31 03:44:39;;;;;;;18.80;17.20;;;;;;;21.94;62.75;94586.72;5031852;28;20190;-77
2023/07/31 03:47:05;;;;;;;19.63;17.92;;;;;;;21.89;62.50;94589.25;5036374;28;20179;-78
2023/07/31 03:49:30;;;;;;;18.50;16.77;;;;;;;21.82;62.56;94584.03;5035524;28;20190;-77
2023/07/31 03:51:56;;;;;;;19.52;17.73;;;;;;;21.90;62.37;94589.03;5036558;28;20249;-77
2023/07/31 03:54:21;;;;;;;18.45;16.75;;;;;;;21.93;62.62;94595.78;5040034;28;20284;-76
2023/07/31 03:56:47;;;;;;;18.05;16.40;;;;;;;21.77;62.90;94595.44;5039143;28;20202;-76
2023/07/31 03:59:12;;;;;;;19.58;17.58;;;;;;;21.81;62.65;94595.78;5037640;28;20252;-76
2023/07/31 04:01:37;;;;;;;19.02;17.27;;;;;;;21.89;62.36;94610.69;5036780;28;20258;-76
2023/07/31 04:04:03;;;;;;;20.48;18.33;;;;;;;21.89;62.20;94608.84;5034736;28;20189;-76
2023/07/31 04:06:28;;;;;;;20.38;18.38;;;;;;;21.90;62.21;94610.47;5029674;28;20201;-75
2023/07/31 04:08:54;;;;;;;19.73;17.90;;;;;;;21.80;62.82;94608.34;5037105;28;20193;-76
2023/07/31 04:11:19;;;;;;;20.33;18.42;;;;;;;21.80;62.68;94610.22;5037570;28;20188;-75
2023/07/31 04:13:44;;;;;;;20.70;18.75;;;;;;;21.64;63.24;94606.34;5032196;28;20281;-77
2023/07/31 04:16:10;;;;;;;20.85;18.85;;;;;;;21.56;63.51;94615.53;5033848;28;20182;-79
2023/07/31 04:18:35;;;;;;;19.92;17.92;;;;;;;21.67;63.01;94611.25;5036506;28;20186;-78
2023/07/31 04:21:02;;;;;;;18.60;16.90;;;;;;;21.64;63.00;94608.22;5035230;28;20193;-77
2023/07/31 04:23:27;;;;;;;20.40;18.50;;;;;;;21.69;62.98;94613.69;5036953;28;20206;-77
2023/07/31 04:25:53;;;;;;;19.92;18.08;;;;;;;21.82;62.37;94615.34;5036233;28;20194;-77
2023/07/31 04:28:18;;;;;;;18.70;16.95;;;;;;;21.88;62.03;94619.75;5036536;28;20182;-77
2023/07/31 04:30:44;;;;;;;20.08;18.17;;;;;;;21.93;62.06;94617.22;5032126;28;20190;-76
2023/07/31 04:33:09;;;;;;;19.75;17.90;;;;;;;21.70;62.84;94615.31;5028385;28;20190;-76
2023/07/31 04:35:34;;;;;;;20.02;18.02;;;;;;;21.79;62.39;94624.66;5031923;28;20189;-77
2023/07/31 04:38:00;;;;;;;19.00;17.20;;;;;;;21.90;62.06;94613.13;5033822;28;20186;-77
2023/07/31 04:40:26;;;;;;;21.00;18.90;;;;;;;22.02;61.74;94613.97;5037901;28;20216;-77
2023/07/31 04:42:51;;;;;;;18.63;16.80;;;;;;;22.00;61.23;94621.41;5032969;28;20579;-77
2023/07/31 04:45:17;;;;;;;18.30;16.60;;;;;;;21.86;61.51;94622.66;5036562;28;20186;-77
2023/07/31 04:47:42;;;;;;;18.92;17.15;;;;;;;21.99;61.19;94614.41;5034124;28;20225;-78
2023/07/31 04:50:08;;;;;;;18.50;16.80;;;;;;;22.07;60.97;94617.78;5037572;28;20225;-77
2023/07/31 04:52:33;;;;;;;20.17;18.27;;;;;;;22.07;60.98;94620.47;5037699;28;20178;-77
2023/07/31 04:54:59;;;;;;;17.92;16.23;;;;;;;22.03;60.79;94614.78;5029812;28;20289;-75
2023/07/31 04:57:24;;;;;;;18.15;16.48;;;;;;;22.13;60.32;94624.88;5039964;28;20644;-74
2023/07/31 04:59:50;;;;;;;18.63;16.85;;;;;;;22.07;60.60;94609.75;5031517;28;20237;-74
2023/07/31 05:02:15;;;;;;;19.00;17.10;;;;;;;22.09;60.78;94618.38;5033071;28;20202;-75
2023/07/31 05:04:41;;;;;;;18.85;17.15;;;;;;;22.15;60.10;94614.75;5035063;28;20182;-78
2023/07/31 05:07:06;;;;;;;18.55;16.83;;;;;;;22.26;59.89;94613.97;5034477;28;20281;-78
2023/07/31 05:09:32;;;;;;;17.83;16.17;;;;;;;22.32;59.67;94612.22;5031692;28;20218;-77
2023/07/31 05:11:57;;;;;;;17.10;15.40;;;;;;;22.38;59.58;94606.75;5035259;28;20174;-77
2023/07/31 05:14:23;;;;;;;17.65;15.98;;;;;;;22.60;58.93;94619.53;5033903;28;20218;-79
2023/07/31 05:16:48;;;;;;;18.75;16.85;;;;;;;22.70;58.59;94611.69;5030461;28;20190;-78
2023/07/31 05:19:14;;;;;;;17.25;15.65;;;;;;;22.60;58.98;94614.16;5035132;28;20204;-76
2023/07/31 05:21:39;;;;;;;17.08;15.38;;;;;;;22.66;58.74;94613.22;5031463;28;20220;-75
2023/07/31 05:24:05;;;;;;;16.35;14.85;;;;;;;22.89;58.22;94613.16;5034394;28;20194;-75
2023/07/31 05:26:30;;;;;;;15.50;14.10;;;;;;;22.73;57.90;94600.50;5033962;28;20273;-76
2023/07/31 05:28:56;;;;;;;15.75;14.30;;;;;;;22.92;57.37;94600.31;5034397;28;20189;-76
2023/07/31 05:31:22;;;;;;;15.02;13.63;;;;;;;22.94;56.73;94604.41;5032819;28;20540;-75
2023/07/31 05:33:49;;;;;;;15.40;14.10;;;;;;;22.99;57.09;94606.38;5030924;28;20642;-74
2023/07/31 05:36:15;;;;;;;15.52;14.13;;;;;;;22.74;58.04;94602.13;5034118;28;20190;-74
2023/07/31 05:38:42;;;;;;;14.60;13.40;;;;;;;22.77;57.84;94603.50;5030990;28;20182;-73
2023/07/31 05:41:07;;;;;;;13.63;12.43;;;;;;;22.67;57.85;94601.47;5030918;28;20206;-74
2023/07/31 05:43:32;;;;;;;13.15;11.85;;;;;;;22.76;57.25;94577.78;5031381;28;20561;-75
2023/07/31 05:45:58;;;;;;;11.88;10.88;;;;;;;22.67;57.11;94594.22;5033766;28;20209;-74
2023/07/31 05:48:23;;;;;;;11.18;10.25;;;;;;;22.55;57.57;94596.09;5035912;28;20189;-76
2023/07/31 05:50:49;;;;;;;11.10;10.20;;;;;;;22.62;57.08;94601.34;5033269;28;20263;-74
2023/07/31 05:53:14;;;;;;;10.85;9.95;;;;;;;22.64;56.90;94612.63;5035941;28;20645;-75
2023/07/31 05:55:40;;;;;;;9.98;9.10;;;;;;;22.50;57.00;94617.44;5033814;28;20201;-76
2023/07/31 05:58:05;;;;;;;8.95;8.20;;;;;;;22.29;57.12;94613.50;5030401;28;20332;-73
2023/07/31 06:00:30;;;;;;;9.63;8.73;;;;;;;22.50;56.50;94613.94;5034712;28;20190;-73
2023/07/31 06:02:57;;;;;;;9.48;8.55;;;;;;;22.45;56.90;94620.00;5030524;28;20230;-73
2023/07/31 06:05:23;;;;;;;9.57;8.77;;;;;;;22.51;56.49;94631.63;5032057;28;20193;-74
2023/07/31 06:07:48;;;;;;;9.15;7.97;;;;;;;22.39;55.88;94628.97;5032938;28;20193;-72
2023/07/31 06:10:14;;;;;;;8.15;7.55;;;;;;;22.37;55.90;94629.25;5030157;28;20321;-73
2023/07/31 06:12:39;;;;;;;8.35;7.55;;;;;;;22.39;56.20;94624.44;5030608;28;20185;-72
2023/07/31 06:15:05;;;;;;;9.60;7.03;;;;;;;22.20;56.23;94623.75;5030826;28;20329;-71
2023/07/31 06:17:31;;;;;;;7.72;6.47;;;;;;;22.33;55.25;94622.69;5035079;28;20192;-72
2023/07/31 06:19:57;;;;;;;5.75;5.30;;;;;;;22.62;53.40;94623.59;5034086;28;20186;-80
2023/07/31 06:22:22;;;;;;;5.22;4.70;;;;;;;22.60;52.67;94619.53;5035930;28;20293;-75
2023/07/31 06:24:48;;;;;;;4.88;4.45;;;;;;;22.71;52.42;94625.91;5028413;28;20226;-76
2023/07/31 06:27:13;;;;;;;4.28;3.88;;;;;;;22.77;51.88;94617.72;5036413;28;20256;-75
2023/07/31 06:29:38;;;;;;;5.95;4.55;;;;;;;22.80;52.15;94614.59;5031699;28;20197;-74
2023/07/31 06:32:04;;;;;;;4.20;3.90;;;;;;;22.81;52.07;94621.56;5032598;28;20202;-75
2023/07/31 06:34:30;;;;;;;4.93;4.18;;;;;;;23.00;51.20;94608.84;5032002;28;20190;-75
2023/07/31 06:36:56;;;;;;;4.63;4.20;;;;;;;22.96;51.16;94612.19;5049877;28;20206;-75
2023/07/31 06:39:22;;;;;;;5.82;4.57;;;;;;;23.03;51.47;94608.34;5033110;28;20213;-77
2023/07/31 06:41:47;;;;;;;8.35;4.13;;;;;;;22.70;52.30;94613.56;5033764;28;20210;-77
2023/07/31 06:44:13;;;;;;;4.88;4.47;;;;;;;22.92;52.25;94624.47;5028307;28;20263;-77
2023/07/31 06:46:38;;;;;;;4.88;4.38;;;;;;;22.71;52.96;94624.03;5034668;28;20186;-78
2023/07/31 06:49:03;;;;;;;4.75;4.35;;;;;;;22.68;53.29;94625.31;5036287;28;20233;-76
2023/07/31 06:51:31;;;;;;;7.18;4.40;;;;;;;22.79;53.09;94623.66;5035104;28;20277;-72
2023/07/31 06:53:57;;;;;;;5.88;3.97;;;;;;;22.98;53.19;94628.88;5034187;28;20178;-74
2023/07/31 06:56:22;;;;;;;4.00;3.65;;;;;;;22.93;52.58;94637.59;5047336;28;20189;-73
2023/07/31 06:58:48;;;;;;;4.30;3.92;;;;;;;23.08;51.97;94631.78;5032817;28;20291;-76
2023/07/31 07:01:13;;;;;;;11.07;4.70;;;;;;;23.39;51.40;94643.06;5037544;28;20201;-77
2023/07/31 07:03:39;;;;;;;4.03;3.63;;;;;;;23.33;51.02;94626.06;5039684;28;20275;-76
2023/07/31 07:06:04;;;;;;;7.40;4.25;;;;;;;23.41;50.57;94627.53;5035761;28;20194;-76
2023/07/31 07:08:29;;;;;;;4.20;3.78;;;;;;;23.50;50.50;94626.13;5041981;28;20213;-77
2023/07/31 07:10:55;;;;;;;3.47;3.17;;;;;;;23.48;50.50;94620.97;5039426;28;20217;-75
2023/07/31 07:13:21;;;;;;;5.57;3.40;;;;;;;23.06;51.68;94633.88;5035905;28;20212;-76
2023/07/31 07:15:51;;;;;;;4.60;3.05;;;;;;;23.15;51.23;94629.78;5036043;28;20276;-72
2023/07/31 07:18:17;;;;;;;3.70;3.35;;;;;;;22.96;51.58;94637.19;5026317;28;20186;-72
2023/07/31 07:20:53;;;;;;;5.78;3.70;;;;;;;22.87;51.38;94631.34;5035851;28;20265;-79
2023/07/31 07:23:19;;;;;;;3.53;3.03;;;;;;;22.97;50.95;94635.31;5051605;28;20295;-78
2023/07/31 07:25:46;;;;;;;3.63;3.28;;;;;;;22.90;51.30;94625.50;5033672;28;20205;-77
2023/07/31 07:28:12;;;;;;;3.55;3.22;;;;;;;23.03;50.80;94623.63;5032887;28;20186;-79
2023/07/31 07:30:37;;;;;;;3.85;3.22;;;;;;;23.20;50.35;94632.56;5034044;28;20610;-78
2023/07/31 07:33:03;;;;;;;3.40;3.10;;;;;;;23.36;50.32;94632.81;5032747;28;20182;-78
2023/07/31 07:35:28;;;;;;;3.78;3.20;;;;;;;23.18;50.62;94623.94;5044779;28;20189;-72
2023/07/31 07:37:54;;;;;;;3.60;3.22;;;;;;;23.19;50.74;94619.38;5036274;28;20199;-73
2023/07/31 07:40:20;;;;;;;5.28;3.33;;;;;;;22.99;51.08;94619.78;5033891;28;20186;-67
2023/07/31 08:21:56;;;;;;;3.40;3.17;;;;;;;23.86;47.45;94634.78;576870;23;20528;-78
2023/07/31 08:24:21;;;;;;;3.47;3.17;;;;;;;24.06;48.26;94642.34;4856639;29;20441;-70
2023/07/31 08:26:47;;;;;;;3.72;3.38;;;;;;;24.15;46.94;94630.94;4856552;29;20395;-78
2023/07/31 08:29:12;;;;;;;3.28;2.97;;;;;;;24.16;46.45;94643.34;4842008;29;20246;-74
2023/07/31 08:31:37;;;;;;;8.70;3.42;;;;;;;24.13;46.91;94630.38;4835282;29;20197;-68
2023/07/31 08:34:03;;;;;;;3.05;2.80;;;;;;;24.14;46.67;94633.91;4856917;29;20200;-73
2023/07/31 08:36:28;;;;;;;3.85;3.30;;;;;;;24.16;46.45;94624.53;4859309;29;20188;-69
2023/07/31 08:38:54;;;;;;;3.90;3.00;;;;;;;24.18;46.11;94630.44;4838263;29;20204;-71
2023/07/31 08:41:19;;;;;;;2.88;2.65;;;;;;;24.18;45.72;94635.81;4856911;29;20196;-70
2023/07/31 08:43:49;;;;;;;4.88;2.90;;;;;;;24.18;46.64;94635.81;4853650;29;20225;-72
2023/07/31 08:46:15;;;;;;;3.25;2.95;;;;;;;23.83;46.27;94632.59;4839121;29;20193;-68
2023/07/31 08:56:32;;;;;;;2.80;2.60;;;;;;;24.50;44.42;94637.13;4897311;23;20248;-88
2023/07/31 08:59:04;;;;;;;2.90;2.70;;;;;;;24.76;44.04;94635.59;4882512;29;20196;-88
2023/07/31 09:07:04;;;;;;;4.50;3.33;;;;;;;24.58;43.76;94624.06;5586743;23;20258;-87
2023/07/31 09:09:33;;;;;;;3.42;3.10;;;;;;;24.29;45.19;94620.66;4852833;29;20184;-89
2023/07/31 09:11:59;;;;;;;3.97;3.30;;;;;;;24.08;45.55;94624.13;4884076;29;20191;-84
2023/07/31 09:14:47;;;;;;;3.03;2.80;;;;;;;24.02;45.35;94614.38;4883063;29;20183;-90
2023/07/31 09:35:33;;;;;;;2.88;2.67;;;;;;;25.81;40.58;94598.50;4964751;23;20238;-91
2023/07/31 09:40:37;;;;;;;2.83;2.63;;;;;;;25.59;41.79;94601.28;5236867;23;20250;-92
2023/07/31 11:33:16;;;;;;;1.80;1.70;;;;;;;28.37;32.13;94539.91;578476;23;20518;-89
2023/07/31 11:35:58;;;;;;;1.88;1.77;;;;;;;28.44;32.01;94535.06;4887454;29;20295;-89
2023/07/31 11:38:32;;;;;;;2.42;1.88;;;;;;;28.77;31.86;94543.59;4901917;29;20236;-88
2023/07/31 11:41:00;;;;;;;2.05;1.80;;;;;;;28.74;31.06;94538.75;4887457;29;20222;-89
2023/07/31 11:43:26;;;;;;;2.10;1.90;;;;;;;28.63;31.40;94520.91;4896950;29;20215;-89
2023/07/31 11:45:58;;;;;;;2.38;1.75;;;;;;;28.56;31.66;94523.94;4893110;29;20809;-88
2023/07/31 11:48:33;;;;;;;2.80;2.20;;;;;;;28.53;31.58;94533.41;5041090;23;20647;-88
2023/07/31 11:51:04;;;;;;;1.90;1.80;;;;;;;28.34;32.46;94524.25;4904637;29;20237;-89
2023/07/31 11:54:01;;;;;;;2.28;2.17;;;;;;;28.44;32.36;94524.25;4900060;29;20250;-87
2023/07/31 11:56:28;;;;;;;2.83;2.20;;;;;;;28.50;32.28;94516.94;4914591;29;20270;-88
2023/07/31 11:59:20;;;;;;;2.22;2.03;;;;;;;28.43;31.82;94532.59;4910415;29;20191;-88
2023/07/31 12:04:30;;;;;;;2.90;2.55;;;;;;;28.86;32.07;94517.56;5038359;23;20251;-88
2023/07/31 12:35:34;;;;;;;7.18;4.50;;;;;;;29.38;31.99;94504.56;5052540;23;20247;-87
2023/07/31 13:09:00;;;;;;;4.63;4.30;;;;;;;31.26;27.77;94481.91;4882722;29;20239;-87
2023/07/31 13:11:28;;;;;;;4.40;4.10;;;;;;;31.25;27.59;94466.72;4889762;29;20191;-86
2023/07/31 13:13:54;;;;;;;7.00;4.57;;;;;;;31.34;27.07;94475.81;4894486;29;20188;-90
2023/07/31 13:16:21;;;;;;;5.47;4.85;;;;;;;31.10;27.71;94475.91;4892009;29;20226;-92
2023/07/31 13:29:13;;;;;;;4.60;4.20;;;;;;;29.42;29.49;94482.03;4891998;29;20207;-92
2023/07/31 13:31:38;;;;;;;6.57;5.95;;;;;;;29.65;29.75;94494.06;4851425;29;20238;-87
2023/07/31 13:34:04;;;;;;;39.03;35.47;;;;;;;29.76;28.69;94494.00;4877083;29;20238;-84
